Peixe Azul — CUBF5 — position and weather

sailwx.info

Track history (hours):
 
Tides and Currents Weather Stations Pressure Air Temp Water Temp Dewpoint Dewpoint Depression Visibility Wind Speed Wind Dir Waves Ship Positions

Peixe Azul

Last reported at 2017-Oct-24 02:30 UTC. Time now 2017-Dec-13 03:37 UTC.
Position N 36°60' W 008°09'.
Warning: this ship's position is 50 days out of date.

Length 23 m.

Type: Fishing. MMSI: 263406560.

Date/timePositionNaut miles runAvg speedWind from/ knotsBaromVisibWave heightAir tempDewpointWater temp
2017-Oct-24 02:30N 36°60' W 008°09'0 0.5
2017-Oct-24 01:56N 37°00' W 008°09'1 2.0
2017-Oct-24 01:22N 36°60' W 008°10'0 0.9
2017-Oct-24 00:59N 36°60' W 008°11'3 0.1
2017-Oct-23 04:45N 37°01' W 008°08'1 4.8
2017-Oct-23 04:28N 37°00' W 008°09'0 0.3
2017-Oct-23 03:59N 37°00' W 008°09'0 0.4
2017-Oct-23 03:30N 37°00' W 008°09'0 0.4
2017-Oct-23 03:00N 37°01' W 008°09'0 0.2
2017-Oct-23 02:30N 37°01' W 008°09'0 0.1
2017-Oct-23 01:58N 37°01' W 008°09'0 0.2
2017-Oct-23 01:28N 37°01' W 008°09'1 2.9
2017-Oct-23 01:00N 36°59' W 008°10'3 6.6
2017-Oct-23 00:30N 37°00' W 008°06'  
2017-Oct-20 07:00N 36°59' W 008°07'0 0.0
2017-Oct-20 06:27N 36°59' W 008°07'0 0.2
2017-Oct-20 06:00N 36°59' W 008°07'1 2.0
2017-Oct-20 05:30N 36°59' W 008°08'1 1.8
2017-Oct-20 04:44N 36°59' W 008°07'1 5.9
2017-Oct-20 04:30N 36°60' W 008°08'0 0.5
2017-Oct-20 03:28N 36°60' W 008°08'3 1.0
2017-Oct-20 00:36N 36°59' W 008°05'1 3.0
2017-Oct-20 00:14N 36°58' W 008°06'  
Track history (hours):
 
Tides and Currents Weather Stations Pressure Air Temp Water Temp Dewpoint Dewpoint Depression Visibility Wind Speed Wind Dir Waves Ship Positions

Peixe Azul

Last reported at 2017-Oct-24 02:30 UTC. Time now 2017-Dec-13 03:37 UTC.
Position N 36°60' W 008°09'.
Warning: this ship's position is 50 days out of date.

Length 23 m.

Type: Fishing. MMSI: 263406560.

Date/timePositionNaut miles runAvg speedWind from/ knotsBaromVisibWave heightAir tempDewpointWater temp
2017-Oct-24 02:30N 36°60' W 008°09'0 0.5
2017-Oct-24 01:56N 37°00' W 008°09'1 2.0
2017-Oct-24 01:22N 36°60' W 008°10'0 0.9
2017-Oct-24 00:59N 36°60' W 008°11'3 0.1
2017-Oct-23 04:45N 37°01' W 008°08'1 4.8
2017-Oct-23 04:28N 37°00' W 008°09'0 0.3
2017-Oct-23 03:59N 37°00' W 008°09'0 0.4
2017-Oct-23 03:30N 37°00' W 008°09'0 0.4
2017-Oct-23 03:00N 37°01' W 008°09'0 0.2
2017-Oct-23 02:30N 37°01' W 008°09'0 0.1
2017-Oct-23 01:58N 37°01' W 008°09'0 0.2
2017-Oct-23 01:28N 37°01' W 008°09'1 2.9
2017-Oct-23 01:00N 36°59' W 008°10'3 6.6
2017-Oct-23 00:30N 37°00' W 008°06'  
2017-Oct-20 07:00N 36°59' W 008°07'0 0.0
2017-Oct-20 06:27N 36°59' W 008°07'0 0.2
2017-Oct-20 06:00N 36°59' W 008°07'1 2.0
2017-Oct-20 05:30N 36°59' W 008°08'1 1.8
2017-Oct-20 04:44N 36°59' W 008°07'1 5.9
2017-Oct-20 04:30N 36°60' W 008°08'0 0.5
2017-Oct-20 03:28N 36°60' W 008°08'3 1.0
2017-Oct-20 00:36N 36°59' W 008°05'1 3.0
2017-Oct-20 00:14N 36°58' W 008°06'  

Dump ship's entire track history